<?xml version='1.0' encoding='UTF-8'?><gpx version="1.1" creator="JPX - https://github.com/jenetics/jpx" xmlns="http://www.topografix.com/GPX/1/1"><trk><trkseg><trkpt lat="45.788647998301606" lon="-1.192939347540588"><ele>10.0</ele><time>2026-04-27T18:49:07.999Z</time></trkpt><trkpt lat="45.78861181749147" lon="-1.1930509385189696"><ele>10.0</ele><time>2026-04-27T18:49:08.999Z</time></trkpt><trkpt lat="45.78858070971054" lon="-1.193141627433397"><ele>10.0</ele><time>2026-04-27T18:49:09.999Z</time></trkpt><trkpt lat="45.78854643022734" lon="-1.1932316141878385"><ele>10.0</ele><time>2026-04-27T18:49:10.999Z</time></trkpt><trkpt lat="45.78850210812702" lon="-1.1933385279529538"><ele>10.0</ele><time>2026-04-27T18:49:11.999Z</time></trkpt><trkpt lat="45.788435946732655" lon="-1.1934450240461008"><ele>10.0</ele><time>2026-04-27T18:49:12.999Z</time></trkpt><trkpt lat="45.78838884080242" lon="-1.1935842603910218"><ele>11.333333333333334</ele><time>2026-04-27T18:49:13.999Z</time></trkpt><trkpt lat="45.78831000961904" lon="-1.1937057894484118"><ele>12.666666666666668</ele><time>2026-04-27T18:49:14.999Z</time></trkpt><trkpt lat="45.78824009477299" lon="-1.1938923363591947"><ele>14.0</ele><time>2026-04-27T18:49:15.999Z</time></trkpt><trkpt lat="45.78811591845285" lon="-1.1941210307360137"><ele>14.5</ele><time>2026-04-27T18:49:16.999Z</time></trkpt><trkpt lat="45.78796625771771" lon="-1.1944322400363931"><ele>15.0</ele><time>2026-04-27T18:49:17.999Z</time></trkpt><trkpt lat="45.787821979771266" lon="-1.1947320071178869"><ele>17.0</ele><time>2026-04-27T18:49:18.999Z</time></trkpt><trkpt lat="45.78766483781536" lon="-1.1950674473881961"><ele>19.0</ele><time>2026-04-27T18:49:19.999Z</time></trkpt><trkpt lat="45.78753863834995" lon="-1.1954009526147182"><ele>20.5</ele><time>2026-04-27T18:49:20.999Z</time></trkpt><trkpt lat="45.78745427384188" lon="-1.1957158218275479"><ele>22.0</ele><time>2026-04-27T18:49:21.999Z</time></trkpt><trkpt lat="45.78741760723711" lon="-1.1960336589715581"><ele>22.0</ele><time>2026-04-27T18:49:22.999Z</time></trkpt><trkpt lat="45.78742953560777" lon="-1.1963696097664038"><ele>22.0</ele><time>2026-04-27T18:49:23.999Z</time></trkpt><trkpt lat="45.78749242648175" lon="-1.196730683311617"><ele>23.5</ele><time>2026-04-27T18:49:24.999Z</time></trkpt><trkpt lat="45.787581846183286" lon="-1.1971376461964518"><ele>25.0</ele><time>2026-04-27T18:49:25.999Z</time></trkpt><trkpt lat="45.78766200123515" lon="-1.197548497819078"><ele>23.0</ele><time>2026-04-27T18:49:26.999Z</time></trkpt><trkpt lat="45.78772996119875" lon="-1.1979462804848968"><ele>21.0</ele><time>2026-04-27T18:49:27.999Z</time></trkpt><trkpt lat="45.78776853842295" lon="-1.1983944589176714"><ele>21.0</ele><time>2026-04-27T18:49:28.999Z</time></trkpt><trkpt lat="45.78782394353349" lon="-1.1987848014775122"><ele>21.0</ele><time>2026-04-27T18:49:29.999Z</time></trkpt><trkpt lat="45.7878335794009" lon="-1.199150130786777"><ele>19.5</ele><time>2026-04-27T18:49:30.999Z</time></trkpt><trkpt lat="45.787821435807565" lon="-1.1995387950426373"><ele>18.0</ele><time>2026-04-27T18:49:31.999Z</time></trkpt><trkpt lat="45.78773301502667" lon="-1.1999551812237732"><ele>19.0</ele><time>2026-04-27T18:49:32.999Z</time></trkpt><trkpt lat="45.787587165848045" lon="-1.2003572422636555"><ele>20.0</ele><time>2026-04-27T18:49:33.999Z</time></trkpt><trkpt lat="45.78743870960449" lon="-1.200712292546252"><ele>20.0</ele><time>2026-04-27T18:49:34.999Z</time></trkpt><trkpt lat="45.78739134085159" lon="-1.2010140567781769"><ele>20.0</ele><time>2026-04-27T18:49:35.999Z</time></trkpt><trkpt lat="45.787397101111246" lon="-1.2013449697284524"><ele>20.0</ele><time>2026-04-27T18:49:36.999Z</time></trkpt><trkpt lat="45.78745828665318" lon="-1.201690627697056"><ele>19.5</ele><time>2026-04-27T18:49:37.999Z</time></trkpt><trkpt lat="45.787575597936396" lon="-1.2020156444517773"><ele>19.0</ele><time>2026-04-27T18:49:38.999Z</time></trkpt><trkpt lat="45.78774778498781" lon="-1.202375794729997"><ele>18.5</ele><time>2026-04-27T18:49:39.999Z</time></trkpt><trkpt lat="45.787949034714686" lon="-1.2027658314486658"><ele>18.0</ele><time>2026-04-27T18:49:40.999Z</time></trkpt><trkpt lat="45.78814703624532" lon="-1.203151900145413"><ele>16.5</ele><time>2026-04-27T18:49:41.999Z</time></trkpt><trkpt lat="45.788342420538896" lon="-1.2035633033064888"><ele>15.0</ele><time>2026-04-27T18:49:42.999Z</time></trkpt><trkpt lat="45.78855951179445" lon="-1.2039737723150765"><ele>13.0</ele><time>2026-04-27T18:49:43.999Z</time></trkpt><trkpt lat="45.7887476201841" lon="-1.2043564300477"><ele>11.0</ele><time>2026-04-27T18:49:44.999Z</time></trkpt><trkpt lat="45.78893382632016" lon="-1.2046946325890122"><ele>11.0</ele><time>2026-04-27T18:49:45.999Z</time></trkpt><trkpt lat="45.78910158921869" lon="-1.2050225581753755"><ele>11.0</ele><time>2026-04-27T18:49:46.999Z</time></trkpt><trkpt lat="45.78927047909327" lon="-1.2053826372911653"><ele>12.0</ele><time>2026-04-27T18:49:47.999Z</time></trkpt><trkpt lat="45.78945456207877" lon="-1.205752130946591"><ele>13.0</ele><time>2026-04-27T18:49:48.999Z</time></trkpt><trkpt lat="45.78960772360349" lon="-1.20612277582379"><ele>13.0</ele><time>2026-04-27T18:49:49.999Z</time></trkpt><trkpt lat="45.789738398611604" lon="-1.2064862495281743"><ele>13.0</ele><time>2026-04-27T18:49:51Z</time></trkpt><trkpt lat="45.789810342793565" lon="-1.2068916362806552"><ele>12.5</ele><time>2026-04-27T18:49:52Z</time></trkpt><trkpt lat="45.78985703335141" lon="-1.207343979625208"><ele>12.0</ele><time>2026-04-27T18:49:53Z</time></trkpt><trkpt lat="45.78989391620321" lon="-1.2078207427480587"><ele>12.0</ele><time>2026-04-27T18:49:54Z</time></trkpt><trkpt lat="45.78995204545226" lon="-1.2083158840246595"><ele>12.0</ele><time>2026-04-27T18:49:55Z</time></trkpt><trkpt lat="45.79000410305088" lon="-1.2087777279336431"><ele>11.0</ele><time>2026-04-27T18:49:56Z</time></trkpt><trkpt lat="45.79003966191579" lon="-1.209231504889621"><ele>10.0</ele><time>2026-04-27T18:49:57Z</time></trkpt><trkpt lat="45.79002907306494" lon="-1.2097216898771104"><ele>10.0</ele><time>2026-04-27T18:49:58Z</time></trkpt><trkpt lat="45.789979476230116" lon="-1.2102434098028505"><ele>10.0</ele><time>2026-04-27T18:49:59Z</time></trkpt><trkpt lat="45.78990415074862" lon="-1.2107862612410558"><ele>10.0</ele><time>2026-04-27T18:50:00Z</time></trkpt><trkpt lat="45.789807262405695" lon="-1.2113036416080072"><ele>10.0</ele><time>2026-04-27T18:50:01Z</time></trkpt><trkpt lat="45.78969158613778" lon="-1.2118287475340053"><ele>10.0</ele><time>2026-04-27T18:50:02Z</time></trkpt><trkpt lat="45.78951780980359" lon="-1.2123445446654069"><ele>10.0</ele><time>2026-04-27T18:50:03Z</time></trkpt><trkpt lat="45.789306700862745" lon="-1.2128394859913516"><ele>8.5</ele><time>2026-04-27T18:50:04Z</time></trkpt><trkpt lat="45.78911144722396" lon="-1.213354740558617"><ele>7.0</ele><time>2026-04-27T18:50:05Z</time></trkpt><trkpt lat="45.7889387031098" lon="-1.2138351497367903"><ele>8.5</ele><time>2026-04-27T18:50:06Z</time></trkpt><trkpt lat="45.78879100281743" lon="-1.214259353792417"><ele>10.0</ele><time>2026-04-27T18:50:07Z</time></trkpt><trkpt lat="45.788657404555494" lon="-1.214608731723399"><ele>10.0</ele><time>2026-04-27T18:50:08Z</time></trkpt><trkpt lat="45.7885298555989" lon="-1.2149114581261098"><ele>10.0</ele><time>2026-04-27T18:50:09Z</time></trkpt><trkpt lat="45.78838742242001" lon="-1.2151450143658482"><ele>10.0</ele><time>2026-04-27T18:50:10Z</time></trkpt><trkpt lat="45.78821082719809" lon="-1.2152964375910886"><ele>10.0</ele><time>2026-04-27T18:50:11Z</time></trkpt><trkpt lat="45.787979371188634" lon="-1.2153841672802619"><ele>10.0</ele><time>2026-04-27T18:50:12Z</time></trkpt><trkpt lat="45.78769776869872" lon="-1.2154395019633129"><ele>10.0</ele><time>2026-04-27T18:50:13Z</time></trkpt><trkpt lat="45.78737343288109" lon="-1.2154756078237359"><ele>10.0</ele><time>2026-04-27T18:50:14Z</time></trkpt><trkpt lat="45.78704591266803" lon="-1.2155312335227701"><ele>10.0</ele><time>2026-04-27T18:50:15Z</time></trkpt><trkpt lat="45.786712691536245" lon="-1.2155972301822162"><ele>10.0</ele><time>2026-04-27T18:50:16Z</time></trkpt><trkpt lat="45.78636092949695" lon="-1.2156616103541682"><ele>9.5</ele><time>2026-04-27T18:50:17Z</time></trkpt><trkpt lat="45.785992351337306" lon="-1.2157328802318634"><ele>9.0</ele><time>2026-04-27T18:50:18Z</time></trkpt><trkpt lat="45.78563745500124" lon="-1.2157881013845402"><ele>9.0</ele><time>2026-04-27T18:50:19Z</time></trkpt><trkpt lat="45.78527225923855" lon="-1.2158466444282303"><ele>9.0</ele><time>2026-04-27T18:50:20Z</time></trkpt><trkpt lat="45.78489258528694" lon="-1.2159230967870032"><ele>8.5</ele><time>2026-04-27T18:50:21Z</time></trkpt><trkpt lat="45.784510720221476" lon="-1.2160174236114167"><ele>8.0</ele><time>2026-04-27T18:50:22Z</time></trkpt><trkpt lat="45.784135266476795" lon="-1.2161208409747515"><ele>9.0</ele><time>2026-04-27T18:50:23Z</time></trkpt><trkpt lat="45.78377314920695" lon="-1.2162727666220547"><ele>10.0</ele><time>2026-04-27T18:50:24Z</time></trkpt><trkpt lat="45.783394715848594" lon="-1.2164493453848253"><ele>9.5</ele><time>2026-04-27T18:50:25Z</time></trkpt><trkpt lat="45.78300658273824" lon="-1.216625112805788"><ele>9.0</ele><time>2026-04-27T18:50:26Z</time></trkpt><trkpt lat="45.78261796345317" lon="-1.2167979530987167"><ele>9.0</ele><time>2026-04-27T18:50:27Z</time></trkpt><trkpt lat="45.78220501141265" lon="-1.216959661084064"><ele>9.0</ele><time>2026-04-27T18:50:28Z</time></trkpt><trkpt lat="45.78178774676242" lon="-1.2171315794417696"><ele>9.0</ele><time>2026-04-27T18:50:29Z</time></trkpt><trkpt lat="45.78136506306993" lon="-1.2172737397251798"><ele>9.0</ele><time>2026-04-27T18:50:30Z</time></trkpt><trkpt lat="45.78092726363705" lon="-1.2173831533414434"><ele>9.0</ele><time>2026-04-27T18:50:31Z</time></trkpt><trkpt lat="45.78047638471391" lon="-1.2174868203787108"><ele>10.0</ele><time>2026-04-27T18:50:32Z</time></trkpt><trkpt lat="45.78004480519072" lon="-1.217605954436684"><ele>11.0</ele><time>2026-04-27T18:50:33Z</time></trkpt><trkpt lat="45.77961237127117" lon="-1.2177530959539258"><ele>11.5</ele><time>2026-04-27T18:50:34Z</time></trkpt><trkpt lat="45.779183423574416" lon="-1.2178877442020146"><ele>12.0</ele><time>2026-04-27T18:50:35Z</time></trkpt><trkpt lat="45.778788718140035" lon="-1.2179767150154768"><ele>12.0</ele><time>2026-04-27T18:50:36Z</time></trkpt><trkpt lat="45.77839053865142" lon="-1.2180391574540845"><ele>12.0</ele><time>2026-04-27T18:50:37Z</time></trkpt><trkpt lat="45.77798117151914" lon="-1.2180647965962008"><ele>11.5</ele><time>2026-04-27T18:50:38Z</time></trkpt><trkpt lat="45.777559346020915" lon="-1.218089793059648"><ele>11.0</ele><time>2026-04-27T18:50:39Z</time></trkpt><trkpt lat="45.777136728540306" lon="-1.2181209576704943"><ele>13.5</ele><time>2026-04-27T18:50:40Z</time></trkpt><trkpt lat="45.77671628827681" lon="-1.218160523880077"><ele>16.0</ele><time>2026-04-27T18:50:40.999Z</time></trkpt><trkpt lat="45.77629588941459" lon="-1.218202494306646"><ele>19.5</ele><time>2026-04-27T18:50:41.999Z</time></trkpt><trkpt lat="45.775897859983544" lon="-1.218236759266335"><ele>23.0</ele><time>2026-04-27T18:50:42.999Z</time></trkpt><trkpt lat="45.77555172212194" lon="-1.2182615893459587"><ele>23.0</ele><time>2026-04-27T18:50:43.999Z</time></trkpt><trkpt lat="45.775238207894624" lon="-1.2182956300724057"><ele>23.0</ele><time>2026-04-27T18:50:44.999Z</time></trkpt><trkpt lat="45.77496296410024" lon="-1.218328455952976"><ele>27.5</ele><time>2026-04-27T18:50:45.999Z</time></trkpt><trkpt lat="45.774721710414056" lon="-1.218321749242063"><ele>32.0</ele><time>2026-04-27T18:50:46.999Z</time></trkpt><trkpt lat="45.77449618384326" lon="-1.21823614623963"><ele>35.5</ele><time>2026-04-27T18:50:47.999Z</time></trkpt><trkpt lat="45.77425754756073" lon="-1.2180493199114533"><ele>39.0</ele><time>2026-04-27T18:50:48.999Z</time></trkpt><trkpt lat="45.77402026832581" lon="-1.2177844418444708"><ele>39.0</ele><time>2026-04-27T18:50:49.999Z</time></trkpt><trkpt lat="45.77379126174589" lon="-1.2174601402255187"><ele>39.0</ele><time>2026-04-27T18:50:50.999Z</time></trkpt><trkpt lat="45.773538372852414" lon="-1.2171440861393221"><ele>40.5</ele><time>2026-04-27T18:50:51.999Z</time></trkpt><trkpt lat="45.773260584743234" lon="-1.2168607034525563"><ele>42.0</ele><time>2026-04-27T18:50:52.999Z</time></trkpt><trkpt lat="45.77296257651837" lon="-1.216660197669761"><ele>42.0</ele><time>2026-04-27T18:50:53.999Z</time></trkpt><trkpt lat="45.772624418080646" lon="-1.216512759777489"><ele>42.0</ele><time>2026-04-27T18:50:54.999Z</time></trkpt><trkpt lat="45.77226779569465" lon="-1.2163837326031393"><ele>42.0</ele><time>2026-04-27T18:50:55.999Z</time></trkpt><trkpt lat="45.77191594098992" lon="-1.2162375361891098"><ele>42.0</ele><time>2026-04-27T18:50:56.999Z</time></trkpt><trkpt lat="45.771567081040125" lon="-1.216040692090729"><ele>41.5</ele><time>2026-04-27T18:50:57.999Z</time></trkpt><trkpt lat="45.77122232881427" lon="-1.215781687598225"><ele>41.0</ele><time>2026-04-27T18:50:58.999Z</time></trkpt><trkpt lat="45.77089939689365" lon="-1.2154791383932064"><ele>40.5</ele><time>2026-04-27T18:50:59.999Z</time></trkpt><trkpt lat="45.77062753642578" lon="-1.2152191994245232"><ele>40.0</ele><time>2026-04-27T18:51:00.999Z</time></trkpt><trkpt lat="45.770366059463804" lon="-1.215005827248455"><ele>39.5</ele><time>2026-04-27T18:51:01.999Z</time></trkpt><trkpt lat="45.77007537510283" lon="-1.214850247562239"><ele>39.0</ele><time>2026-04-27T18:51:02.999Z</time></trkpt><trkpt lat="45.769727256145174" lon="-1.2147851932218974"><ele>40.0</ele><time>2026-04-27T18:51:03.999Z</time></trkpt><trkpt lat="45.769362229984665" lon="-1.2147838697882634"><ele>41.0</ele><time>2026-04-27T18:51:04.999Z</time></trkpt><trkpt lat="45.769045089238446" lon="-1.2147789745646085"><ele>46.0</ele><time>2026-04-27T18:51:05.999Z</time></trkpt><trkpt lat="45.768789545682694" lon="-1.2147382887698557"><ele>51.0</ele><time>2026-04-27T18:51:06.999Z</time></trkpt><trkpt lat="45.76857073840292" lon="-1.2146195323406659"><ele>52.5</ele><time>2026-04-27T18:51:07.999Z</time></trkpt><trkpt lat="45.76839140795864" lon="-1.2144298303129886"><ele>54.0</ele><time>2026-04-27T18:51:08.999Z</time></trkpt><trkpt lat="45.768232284693816" lon="-1.214166471425287"><ele>55.0</ele><time>2026-04-27T18:51:09.999Z</time></trkpt><trkpt lat="45.7680703888028" lon="-1.2138174601275622"><ele>56.0</ele><time>2026-04-27T18:51:10.999Z</time></trkpt><trkpt lat="45.76790544575593" lon="-1.2134204629221685"><ele>56.0</ele><time>2026-04-27T18:51:11.999Z</time></trkpt><trkpt lat="45.767713744807246" lon="-1.2130464448832343"><ele>56.0</ele><time>2026-04-27T18:51:12.999Z</time></trkpt><trkpt lat="45.767482614467035" lon="-1.2127394716584645"><ele>50.5</ele><time>2026-04-27T18:51:13.999Z</time></trkpt><trkpt lat="45.76727315178732" lon="-1.2125077065306797"><ele>45.0</ele><time>2026-04-27T18:51:14.999Z</time></trkpt><trkpt lat="45.76706647050476" lon="-1.2123983671641512"><ele>40.0</ele><time>2026-04-27T18:51:15.999Z</time></trkpt><trkpt lat="45.766829737871376" lon="-1.2123306370988227"><ele>35.0</ele><time>2026-04-27T18:51:16.999Z</time></trkpt><trkpt lat="45.766520470467704" lon="-1.2123207182230809"><ele>35.0</ele><time>2026-04-27T18:51:17.999Z</time></trkpt><trkpt lat="45.766177287864906" lon="-1.2123415730280198"><ele>35.0</ele><time>2026-04-27T18:51:18.999Z</time></trkpt><trkpt lat="45.765835785366164" lon="-1.212372302857277"><ele>34.0</ele><time>2026-04-27T18:51:19.999Z</time></trkpt><trkpt lat="45.76551291292397" lon="-1.2124127826074689"><ele>33.0</ele><time>2026-04-27T18:51:20.999Z</time></trkpt><trkpt lat="45.76524040649078" lon="-1.212464015740351"><ele>34.5</ele><time>2026-04-27T18:51:21.999Z</time></trkpt><trkpt lat="45.76499445105136" lon="-1.212634565246041"><ele>36.0</ele><time>2026-04-27T18:51:22.999Z</time></trkpt><trkpt lat="45.76469983181394" lon="-1.2128420769107946"><ele>36.0</ele><time>2026-04-27T18:51:23.999Z</time></trkpt><trkpt lat="45.76440953146891" lon="-1.2130986581991443"><ele>36.0</ele><time>2026-04-27T18:51:24.999Z</time></trkpt><trkpt lat="45.764128270095945" lon="-1.2133787155469213"><ele>34.5</ele><time>2026-04-27T18:51:25.999Z</time></trkpt><trkpt lat="45.76381706949763" lon="-1.2136437744184552"><ele>33.0</ele><time>2026-04-27T18:51:26.999Z</time></trkpt><trkpt lat="45.76355712698484" lon="-1.21394295432393"><ele>31.0</ele><time>2026-04-27T18:51:27.999Z</time></trkpt><trkpt lat="45.76334382932164" lon="-1.214284865983957"><ele>29.0</ele><time>2026-04-27T18:51:28.999Z</time></trkpt><trkpt lat="45.76314205597092" lon="-1.2146816108457246"><ele>28.0</ele><time>2026-04-27T18:51:29.999Z</time></trkpt><trkpt lat="45.76293464125642" lon="-1.2150690722736726"><ele>27.0</ele><time>2026-04-27T18:51:30.999Z</time></trkpt><trkpt lat="45.76274059640394" lon="-1.215399731226929"><ele>25.5</ele><time>2026-04-27T18:51:31.999Z</time></trkpt><trkpt lat="45.762512200781934" lon="-1.215678340318046"><ele>24.0</ele><time>2026-04-27T18:51:32.999Z</time></trkpt><trkpt lat="45.76222833725628" lon="-1.2159105268715602"><ele>24.0</ele><time>2026-04-27T18:51:33.999Z</time></trkpt><trkpt lat="45.76191851651384" lon="-1.2161282825338278"><ele>24.0</ele><time>2026-04-27T18:51:34.999Z</time></trkpt><trkpt lat="45.76159024353058" lon="-1.2163562892440682"><ele>21.5</ele><time>2026-04-27T18:51:35.999Z</time></trkpt><trkpt lat="45.76127136087525" lon="-1.2165997896219738"><ele>19.0</ele><time>2026-04-27T18:51:36.999Z</time></trkpt><trkpt lat="45.760943225678055" lon="-1.2167718676385997"><ele>18.0</ele><time>2026-04-27T18:51:37.999Z</time></trkpt><trkpt lat="45.76062139571384" lon="-1.2168723882203802"><ele>17.0</ele><time>2026-04-27T18:51:38.999Z</time></trkpt><trkpt lat="45.76026961074846" lon="-1.2169055085153042"><ele>17.5</ele><time>2026-04-27T18:51:39.999Z</time></trkpt><trkpt lat="45.75989093634193" lon="-1.2168816820064825"><ele>18.0</ele><time>2026-04-27T18:51:40.999Z</time></trkpt><trkpt lat="45.75954531673663" lon="-1.2168867651992812"><ele>18.0</ele><time>2026-04-27T18:51:41.999Z</time></trkpt><trkpt lat="45.75922128829298" lon="-1.2169277517283925"><ele>18.0</ele><time>2026-04-27T18:51:42.999Z</time></trkpt><trkpt lat="45.758896374539354" lon="-1.2169999220918597"><ele>18.0</ele><time>2026-04-27T18:51:43.999Z</time></trkpt><trkpt lat="45.75864356515698" lon="-1.2171852025713368"><ele>18.0</ele><time>2026-04-27T18:51:44.999Z</time></trkpt><trkpt lat="45.75839013028632" lon="-1.2174168861067622"><ele>16.5</ele><time>2026-04-27T18:51:45.999Z</time></trkpt><trkpt lat="45.758145741578154" lon="-1.2177293876831747"><ele>15.0</ele><time>2026-04-27T18:51:46.999Z</time></trkpt><trkpt lat="45.7579372743229" lon="-1.2181269266851833"><ele>15.0</ele><time>2026-04-27T18:51:47.999Z</time></trkpt><trkpt lat="45.75771963778022" lon="-1.2185243046677159"><ele>15.0</ele><time>2026-04-27T18:51:48.999Z</time></trkpt><trkpt lat="45.75751084004827" lon="-1.2188952877108283"><ele>14.5</ele><time>2026-04-27T18:51:49.999Z</time></trkpt><trkpt lat="45.75726845839035" lon="-1.219116638331878"><ele>14.0</ele><time>2026-04-27T18:51:50.999Z</time></trkpt><trkpt lat="45.75704815055403" lon="-1.2192739883972894"><ele>19.5</ele><time>2026-04-27T18:51:51.999Z</time></trkpt><trkpt lat="45.75683370588346" lon="-1.2193247064156485"><ele>25.0</ele><time>2026-04-27T18:51:52.999Z</time></trkpt><trkpt lat="45.75658710726114" lon="-1.219310278627443"><ele>25.0</ele><time>2026-04-27T18:51:53.999Z</time></trkpt><trkpt lat="45.75632026969328" lon="-1.2192089267282658"><ele>25.0</ele><time>2026-04-27T18:51:54.999Z</time></trkpt><trkpt lat="45.75605848424066" lon="-1.2190551111150796"><ele>22.0</ele><time>2026-04-27T18:51:55.999Z</time></trkpt><trkpt lat="45.755791608163115" lon="-1.218816275947845"><ele>19.0</ele><time>2026-04-27T18:51:57Z</time></trkpt><trkpt lat="45.75550310126877" lon="-1.2185548187736714"><ele>19.0</ele><time>2026-04-27T18:51:58Z</time></trkpt><trkpt lat="45.75521253749494" lon="-1.218283279341619"><ele>19.0</ele><time>2026-04-27T18:51:59Z</time></trkpt><trkpt lat="45.75489362756933" lon="-1.2180248375494154"><ele>18.0</ele><time>2026-04-27T18:52:00Z</time></trkpt><trkpt lat="45.75458271631157" lon="-1.217760761253811"><ele>17.0</ele><time>2026-04-27T18:52:01Z</time></trkpt><trkpt lat="45.7543103536282" lon="-1.217532548576785"><ele>17.333333333333336</ele><time>2026-04-27T18:52:02Z</time></trkpt><trkpt lat="45.754093394603466" lon="-1.2173627066758386"><ele>17.666666666666668</ele><time>2026-04-27T18:52:03Z</time></trkpt><trkpt lat="45.75391371884779" lon="-1.217280417733781"><ele>18.0</ele><time>2026-04-27T18:52:04Z</time></trkpt><trkpt lat="45.75376196095305" lon="-1.217197201443424"><ele>18.0</ele><time>2026-04-27T18:52:05Z</time></trkpt><trkpt lat="45.75361261624511" lon="-1.2171499067669647"><ele>18.0</ele><time>2026-04-27T18:52:06Z</time></trkpt><trkpt lat="45.75346709340461" lon="-1.2170978521379308"><ele>18.0</ele><time>2026-04-27T18:52:07Z</time></trkpt><trkpt lat="45.753338784597" lon="-1.2170471815925128"><ele>18.0</ele><time>2026-04-27T18:52:08Z</time></trkpt><trkpt lat="45.75321253698636" lon="-1.216986779795558"><ele>18.25</ele><time>2026-04-27T18:52:09Z</time></trkpt><trkpt lat="45.75309899999039" lon="-1.21694156057754"><ele>18.5</ele><time>2026-04-27T18:52:10Z</time></trkpt><trkpt lat="45.75297143316011" lon="-1.2168957754791856"><ele>18.75</ele><time>2026-04-27T18:52:11Z</time></trkpt><trkpt lat="45.752800417190805" lon="-1.2168303888821"><ele>19.0</ele><time>2026-04-27T18:52:12Z</time></trkpt><trkpt lat="45.752595702336116" lon="-1.2167561448551747"><ele>19.5</ele><time>2026-04-27T18:52:13Z</time></trkpt><trkpt lat="45.752344778639326" lon="-1.2166589071135483"><ele>20.0</ele><time>2026-04-27T18:52:14Z</time></trkpt><trkpt lat="45.75206543124382" lon="-1.216550732073874"><ele>19.5</ele><time>2026-04-27T18:52:15Z</time></trkpt><trkpt lat="45.75178266415972" lon="-1.2164656768943904"><ele>19.0</ele><time>2026-04-27T18:52:16Z</time></trkpt><trkpt lat="45.75147953635559" lon="-1.2163515497159543"><ele>19.0</ele><time>2026-04-27T18:52:17Z</time></trkpt><trkpt lat="45.75114472062195" lon="-1.2162122078640194"><ele>19.0</ele><time>2026-04-27T18:52:18Z</time></trkpt><trkpt lat="45.75081169801481" lon="-1.2160939984649062"><ele>18.5</ele><time>2026-04-27T18:52:19Z</time></trkpt><trkpt lat="45.750456048226965" lon="-1.2159664798782943"><ele>18.0</ele><time>2026-04-27T18:52:20Z</time></trkpt><trkpt lat="45.75008653817518" lon="-1.2158307943794697"><ele>16.5</ele><time>2026-04-27T18:52:21Z</time></trkpt><trkpt lat="45.74972766021696" lon="-1.2156863466008616"><ele>15.0</ele><time>2026-04-27T18:52:22Z</time></trkpt><trkpt lat="45.749377830060205" lon="-1.2155649824896182"><ele>14.0</ele><time>2026-04-27T18:52:23Z</time></trkpt><trkpt lat="45.749027059540865" lon="-1.2154944346745653"><ele>13.0</ele><time>2026-04-27T18:52:24Z</time></trkpt><trkpt lat="45.74865301071028" lon="-1.2155119858744414"><ele>13.0</ele><time>2026-04-27T18:52:25Z</time></trkpt><trkpt lat="45.748259040353126" lon="-1.2155135029727393"><ele>13.0</ele><time>2026-04-27T18:52:26Z</time></trkpt><trkpt lat="45.74784847334293" lon="-1.2155471275960887"><ele>14.0</ele><time>2026-04-27T18:52:27Z</time></trkpt><trkpt lat="45.74744193704402" lon="-1.2155654306972696"><ele>15.0</ele><time>2026-04-27T18:52:28Z</time></trkpt><trkpt lat="45.74703310054155" lon="-1.2155817825833954"><ele>15.0</ele><time>2026-04-27T18:52:29Z</time></trkpt><trkpt lat="45.74661590648239" lon="-1.2155998530761059"><ele>15.0</ele><time>2026-04-27T18:52:30Z</time></trkpt><trkpt lat="45.74621121494949" lon="-1.2156228569260734"><ele>15.0</ele><time>2026-04-27T18:52:31Z</time></trkpt><trkpt lat="45.74584146228515" lon="-1.2156359774518033"><ele>15.0</ele><time>2026-04-27T18:52:32Z</time></trkpt><trkpt lat="45.74549949168552" lon="-1.2156144134158653"><ele>15.0</ele><time>2026-04-27T18:52:33Z</time></trkpt><trkpt lat="45.745166185113206" lon="-1.2155132430311129"><ele>15.0</ele><time>2026-04-27T18:52:34Z</time></trkpt><trkpt lat="45.74483607248101" lon="-1.2153295600611667"><ele>15.0</ele><time>2026-04-27T18:52:35Z</time></trkpt><trkpt lat="45.744517864381216" lon="-1.2150998893011902"><ele>15.0</ele><time>2026-04-27T18:52:36Z</time></trkpt><trkpt lat="45.74424163053615" lon="-1.2149390098956125"><ele>15.0</ele><time>2026-04-27T18:52:37Z</time></trkpt><trkpt lat="45.74395920012683" lon="-1.2148913952311344"><ele>15.0</ele><time>2026-04-27T18:52:38Z</time></trkpt><trkpt lat="45.74366091489759" lon="-1.2149076178835005"><ele>14.5</ele><time>2026-04-27T18:52:39Z</time></trkpt><trkpt lat="45.743320374578744" lon="-1.2149762173990406"><ele>14.0</ele><time>2026-04-27T18:52:40Z</time></trkpt><trkpt lat="45.742967015765025" lon="-1.2150424351010973"><ele>13.5</ele><time>2026-04-27T18:52:41Z</time></trkpt><trkpt lat="45.74260862629173" lon="-1.215137760342547"><ele>13.0</ele><time>2026-04-27T18:52:42Z</time></trkpt><trkpt lat="45.742241823737814" lon="-1.2152306553041419"><ele>13.0</ele><time>2026-04-27T18:52:43Z</time></trkpt><trkpt lat="45.741873674778006" lon="-1.2153202960458924"><ele>13.0</ele><time>2026-04-27T18:52:44Z</time></trkpt><trkpt lat="45.74153629817179" lon="-1.2154015728087242"><ele>13.0</ele><time>2026-04-27T18:52:45Z</time></trkpt><trkpt lat="45.741239598656016" lon="-1.2154779983669417"><ele>13.0</ele><time>2026-04-27T18:52:46Z</time></trkpt><trkpt lat="45.7409660544797" lon="-1.2155418904111794"><ele>13.0</ele><time>2026-04-27T18:52:47Z</time></trkpt><trkpt lat="45.74070435205799" lon="-1.2155892821999406"><ele>13.0</ele><time>2026-04-27T18:52:48Z</time></trkpt><trkpt lat="45.740449655726685" lon="-1.2156383904594776"><ele>14.0</ele><time>2026-04-27T18:52:49Z</time></trkpt><trkpt lat="45.74020784255807" lon="-1.215705394516502"><ele>15.0</ele><time>2026-04-27T18:52:50Z</time></trkpt><trkpt lat="45.73996264730479" lon="-1.2157644160146148"><ele>15.0</ele><time>2026-04-27T18:52:51Z</time></trkpt><trkpt lat="45.73971951630022" lon="-1.2158198648171124"><ele>15.0</ele><time>2026-04-27T18:52:52Z</time></trkpt><trkpt lat="45.73946664258789" lon="-1.2158624928962476"><ele>15.5</ele><time>2026-04-27T18:52:52.999Z</time></trkpt><trkpt lat="45.73921759342477" lon="-1.2159135074066783"><ele>16.0</ele><time>2026-04-27T18:52:53.999Z</time></trkpt><trkpt lat="45.73896669979633" lon="-1.2159666669582374"><ele>16.0</ele><time>2026-04-27T18:52:54.999Z</time></trkpt><trkpt lat="45.73871064286582" lon="-1.216027173722002"><ele>16.0</ele><time>2026-04-27T18:52:55.999Z</time></trkpt><trkpt lat="45.73843704643318" lon="-1.2160971285146944"><ele>15.5</ele><time>2026-04-27T18:52:56.999Z</time></trkpt><trkpt lat="45.73813886871283" lon="-1.216171622747858"><ele>15.0</ele><time>2026-04-27T18:52:57.999Z</time></trkpt><trkpt lat="45.737831210617514" lon="-1.2162470899422047"><ele>15.5</ele><time>2026-04-27T18:52:58.999Z</time></trkpt><trkpt lat="45.737518983006524" lon="-1.2163502483949267"><ele>16.0</ele><time>2026-04-27T18:52:59.999Z</time></trkpt><trkpt lat="45.73722146096781" lon="-1.2165606755267764"><ele>16.0</ele><time>2026-04-27T18:53:00.999Z</time></trkpt><trkpt lat="45.736920605501325" lon="-1.2167928863432167"><ele>16.0</ele><time>2026-04-27T18:53:01.999Z</time></trkpt><trkpt lat="45.73661625897815" lon="-1.2170260708524245"><ele>16.5</ele><time>2026-04-27T18:53:02.999Z</time></trkpt><trkpt lat="45.73635484253533" lon="-1.2172684729020207"><ele>17.0</ele><time>2026-04-27T18:53:03.999Z</time></trkpt><trkpt lat="45.73612397528669" lon="-1.217592843132026"><ele>15.5</ele><time>2026-04-27T18:53:04.999Z</time></trkpt><trkpt lat="45.73590491950884" lon="-1.2179763289536514"><ele>14.0</ele><time>2026-04-27T18:53:05.999Z</time></trkpt><trkpt lat="45.735700906885874" lon="-1.218362019827183"><ele>13.0</ele><time>2026-04-27T18:53:06.999Z</time></trkpt><trkpt lat="45.73549248767308" lon="-1.218670753299726"><ele>12.0</ele><time>2026-04-27T18:53:07.999Z</time></trkpt><trkpt lat="45.73526581814007" lon="-1.2189585053110923"><ele>15.0</ele><time>2026-04-27T18:53:08.999Z</time></trkpt><trkpt lat="45.73498600193134" lon="-1.2192108389825964"><ele>18.0</ele><time>2026-04-27T18:53:09.999Z</time></trkpt><trkpt lat="45.73465503026659" lon="-1.219411765684804"><ele>17.0</ele><time>2026-04-27T18:53:10.999Z</time></trkpt><trkpt lat="45.73431306172605" lon="-1.219599827290621"><ele>16.0</ele><time>2026-04-27T18:53:11.999Z</time></trkpt><trkpt lat="45.73394230802237" lon="-1.219776733376229"><ele>17.5</ele><time>2026-04-27T18:53:12.999Z</time></trkpt><trkpt lat="45.733593069755734" lon="-1.2199669610384791"><ele>19.0</ele><time>2026-04-27T18:53:13.999Z</time></trkpt><trkpt lat="45.73322878440361" lon="-1.2201759434710489"><ele>19.0</ele><time>2026-04-27T18:53:14.999Z</time></trkpt><trkpt lat="45.732851124917765" lon="-1.2203811440475865"><ele>19.0</ele><time>2026-04-27T18:53:15.999Z</time></trkpt><trkpt lat="45.732495642907125" lon="-1.2205741190794994"><ele>18.5</ele><time>2026-04-27T18:53:16.999Z</time></trkpt><trkpt lat="45.73218263139462" lon="-1.2207493029474892"><ele>18.0</ele><time>2026-04-27T18:53:17.999Z</time></trkpt><trkpt lat="45.73187736701522" lon="-1.220919704522119"><ele>18.0</ele><time>2026-04-27T18:53:18.999Z</time></trkpt><trkpt lat="45.73157375980338" lon="-1.2211382887448485"><ele>18.0</ele><time>2026-04-27T18:53:19.999Z</time></trkpt><trkpt lat="45.731270010563215" lon="-1.2214278433427654"><ele>16.0</ele><time>2026-04-27T18:53:20.999Z</time></trkpt><trkpt lat="45.730939169862815" lon="-1.2216968936407895"><ele>14.0</ele><time>2026-04-27T18:53:21.999Z</time></trkpt><trkpt lat="45.73061373276653" lon="-1.2220050289453501"><ele>14.0</ele><time>2026-04-27T18:53:22.999Z</time></trkpt><trkpt lat="45.730259597289916" lon="-1.2223121955280263"><ele>14.0</ele><time>2026-04-27T18:53:23.999Z</time></trkpt><trkpt lat="45.7299030646119" lon="-1.2226094279802415"><ele>12.0</ele><time>2026-04-27T18:53:24.999Z</time></trkpt><trkpt lat="45.729543796592765" lon="-1.222926294610512"><ele>10.0</ele><time>2026-04-27T18:53:25.999Z</time></trkpt><trkpt lat="45.72922081269531" lon="-1.2232112879877446"><ele>10.0</ele><time>2026-04-27T18:53:26.999Z</time></trkpt><trkpt lat="45.728933723402456" lon="-1.223467700357595"><ele>10.0</ele><time>2026-04-27T18:53:27.999Z</time></trkpt><trkpt lat="45.72867342270216" lon="-1.2237070748042504"><ele>10.5</ele><time>2026-04-27T18:53:28.999Z</time></trkpt><trkpt lat="45.72842589116603" lon="-1.2239293869219088"><ele>11.0</ele><time>2026-04-27T18:53:29.999Z</time></trkpt><trkpt lat="45.7281617815937" lon="-1.2241215507338976"><ele>11.0</ele><time>2026-04-27T18:53:30.999Z</time></trkpt><trkpt lat="45.72787571270973" lon="-1.2242868925916939"><ele>11.0</ele><time>2026-04-27T18:53:31.999Z</time></trkpt><trkpt lat="45.72753001421981" lon="-1.2243775094956"><ele>11.0</ele><time>2026-04-27T18:53:32.999Z</time></trkpt><trkpt lat="45.72717684952246" lon="-1.2244491883574695"><ele>11.0</ele><time>2026-04-27T18:53:33.999Z</time></trkpt><trkpt lat="45.7268006043135" lon="-1.2245272355830614"><ele>11.0</ele><time>2026-04-27T18:53:34.999Z</time></trkpt><trkpt lat="45.726445475854426" lon="-1.224689892913726"><ele>11.0</ele><time>2026-04-27T18:53:35.999Z</time></trkpt><trkpt lat="45.726093981071955" lon="-1.2249108623448062"><ele>12.0</ele><time>2026-04-27T18:53:36.999Z</time></trkpt><trkpt lat="45.72572216612415" lon="-1.2250893045393256"><ele>13.0</ele><time>2026-04-27T18:53:37.999Z</time></trkpt><trkpt lat="45.72537028308086" lon="-1.2252452039446948"><ele>13.0</ele><time>2026-04-27T18:53:38.999Z</time></trkpt><trkpt lat="45.72505458815675" lon="-1.2253454850635779"><ele>13.0</ele><time>2026-04-27T18:53:39.999Z</time></trkpt><trkpt lat="45.72479259827213" lon="-1.225478575298715"><ele>13.0</ele><time>2026-04-27T18:53:40.999Z</time></trkpt><trkpt lat="45.724540333579895" lon="-1.2256790938459379"><ele>13.0</ele><time>2026-04-27T18:53:41.999Z</time></trkpt><trkpt lat="45.724261016205396" lon="-1.225952543967949"><ele>12.0</ele><time>2026-04-27T18:53:42.999Z</time></trkpt><trkpt lat="45.72396756048166" lon="-1.2262415551110342"><ele>11.0</ele><time>2026-04-27T18:53:43.999Z</time></trkpt><trkpt lat="45.723659396819194" lon="-1.226531761024432"><ele>10.5</ele><time>2026-04-27T18:53:44.999Z</time></trkpt><trkpt lat="45.723347204828144" lon="-1.2268432668593803"><ele>10.0</ele><time>2026-04-27T18:53:45.999Z</time></trkpt><trkpt lat="45.7230272183223" lon="-1.2271554148506587"><ele>9.0</ele><time>2026-04-27T18:53:46.999Z</time></trkpt><trkpt lat="45.72272262388915" lon="-1.227465970906101"><ele>8.0</ele><time>2026-04-27T18:53:47.999Z</time></trkpt><trkpt lat="45.722473698791504" lon="-1.2276943771703313"><ele>8.0</ele><time>2026-04-27T18:53:48.999Z</time></trkpt><trkpt lat="45.72228587935255" lon="-1.227862584824791"><ele>8.0</ele><time>2026-04-27T18:53:49.999Z</time></trkpt><trkpt lat="45.72211972925963" lon="-1.2279525355144885"><ele>8.0</ele><time>2026-04-27T18:53:50.999Z</time></trkpt><trkpt lat="45.7218950751294" lon="-1.227976913372305"><ele>8.5</ele><time>2026-04-27T18:53:51.999Z</time></trkpt><trkpt lat="45.72162536268674" lon="-1.2279654653073775"><ele>9.0</ele><time>2026-04-27T18:53:52.999Z</time></trkpt><trkpt lat="45.72139362243934" lon="-1.2280623724938808"><ele>9.333333333333334</ele><time>2026-04-27T18:53:53.999Z</time></trkpt><trkpt lat="45.72125519982948" lon="-1.2282348830659742"><ele>9.666666666666668</ele><time>2026-04-27T18:53:54.999Z</time></trkpt><trkpt lat="45.72110795887793" lon="-1.2284892522579434"><ele>10.0</ele><time>2026-04-27T18:53:55.999Z</time></trkpt><trkpt lat="45.72096052017228" lon="-1.2287834916379832"><ele>9.5</ele><time>2026-04-27T18:53:56.999Z</time></trkpt><trkpt lat="45.7208019919288" lon="-1.2291237709362852"><ele>9.0</ele><time>2026-04-27T18:53:57.999Z</time></trkpt><trkpt lat="45.720670486645446" lon="-1.2294244049409273"><ele>9.0</ele><time>2026-04-27T18:53:58.999Z</time></trkpt><trkpt lat="45.72052755956885" lon="-1.2296639130216056"><ele>9.0</ele><time>2026-04-27T18:53:59.999Z</time></trkpt><trkpt lat="45.72033409012094" lon="-1.22983484381496"><ele>9.0</ele><time>2026-04-27T18:54:00.999Z</time></trkpt><trkpt lat="45.720081996889824" lon="-1.229929927456699"><ele>8.5</ele><time>2026-04-27T18:54:01.999Z</time></trkpt><trkpt lat="45.71977746980469" lon="-1.2299834111194523"><ele>8.0</ele><time>2026-04-27T18:54:03Z</time></trkpt><trkpt lat="45.71944073232634" lon="-1.230040211695269"><ele>8.0</ele><time>2026-04-27T18:54:04Z</time></trkpt><trkpt lat="45.71914588237556" lon="-1.2300763813185727"><ele>8.0</ele><time>2026-04-27T18:54:05Z</time></trkpt><trkpt lat="45.71888647424852" lon="-1.2301158451545908"><ele>8.0</ele><time>2026-04-27T18:54:06Z</time></trkpt><trkpt lat="45.71864854428542" lon="-1.230172673508886"><ele>8.0</ele><time>2026-04-27T18:54:07Z</time></trkpt><trkpt lat="45.71842695432418" lon="-1.2302278638891508"><ele>7.666666666666666</ele><time>2026-04-27T18:54:08Z</time></trkpt><trkpt lat="45.71821339714555" lon="-1.2302728156035976"><ele>7.333333333333334</ele><time>2026-04-27T18:54:09Z</time></trkpt><trkpt lat="45.71801446401103" lon="-1.230311083116347"><ele>7.0</ele><time>2026-04-27T18:54:10Z</time></trkpt><trkpt lat="45.71782958828991" lon="-1.230348843818616"><ele>7.666666666666667</ele><time>2026-04-27T18:54:11Z</time></trkpt><trkpt lat="45.71765975604686" lon="-1.2303864512695764"><ele>8.333333333333334</ele><time>2026-04-27T18:54:12Z</time></trkpt><trkpt lat="45.7174985275443" lon="-1.230413895141117"><ele>9.0</ele><time>2026-04-27T18:54:13Z</time></trkpt><trkpt lat="45.71735175765228" lon="-1.2304390445691102"><ele>9.0</ele><time>2026-04-27T18:54:14Z</time></trkpt><trkpt lat="45.71721457835068" lon="-1.230475204930319"><ele>9.0</ele><time>2026-04-27T18:54:15Z</time></trkpt><trkpt lat="45.717079687949536" lon="-1.2305047827753444"><ele>9.0</ele><time>2026-04-27T18:54:16Z</time></trkpt><trkpt lat="45.71695955205799" lon="-1.2305310047453861"><ele>9.0</ele><time>2026-04-27T18:54:17Z</time></trkpt><trkpt lat="45.71685003789453" lon="-1.230558266646484"><ele>8.833333333333334</ele><time>2026-04-27T18:54:18Z</time></trkpt><trkpt lat="45.716751150612204" lon="-1.2305871020976142"><ele>8.666666666666666</ele><time>2026-04-27T18:54:19Z</time></trkpt><trkpt lat="45.716670222470135" lon="-1.2306056055130132"><ele>8.5</ele><time>2026-04-27T18:54:20Z</time></trkpt><trkpt lat="45.716590089712696" lon="-1.230629409630061"><ele>8.333333333333332</ele><time>2026-04-27T18:54:22Z</time></trkpt><trkpt lat="45.71651882505518" lon="-1.230630633843943"><ele>8.166666666666666</ele><time>2026-04-27T19:00:09.999Z</time></trkpt><trkpt lat="45.716446420447895" lon="-1.2306322721225855"><ele>8.0</ele><time>2026-04-27T19:00:10.999Z</time></trkpt><trkpt lat="45.716350266590275" lon="-1.230647866238625"><ele>7.800000000000001</ele><time>2026-04-27T19:00:11.999Z</time></trkpt><trkpt lat="45.716241622205956" lon="-1.2306713539117375"><ele>7.6000000000000005</ele><time>2026-04-27T19:00:12.999Z</time></trkpt><trkpt lat="45.71614693875352" lon="-1.2306928918768414"><ele>7.3999999999999995</ele><time>2026-04-27T19:00:13.999Z</time></trkpt><trkpt lat="45.71603509007857" lon="-1.2307119067175245"><ele>7.199999999999999</ele><time>2026-04-27T19:00:14.999Z</time></trkpt><trkpt lat="45.71591894030092" lon="-1.2307305509420903"><ele>7.0</ele><time>2026-04-27T19:00:15.999Z</time></trkpt><trkpt lat="45.71580738930429" lon="-1.2307512228931254"><ele>7.0</ele><time>2026-04-27T19:00:16.999Z</time></trkpt><trkpt lat="45.71570039963007" lon="-1.2307721060313468"><ele>6.999999999999999</ele><time>2026-04-27T19:00:17.999Z</time></trkpt><trkpt lat="45.71560106496152" lon="-1.2307920500120157"><ele>6.999999999999999</ele><time>2026-04-27T19:00:18.999Z</time></trkpt><trkpt lat="45.715498478894894" lon="-1.2308137391591434"><ele>7.0</ele><time>2026-04-27T19:00:19.999Z</time></trkpt><trkpt lat="45.71537609015696" lon="-1.2308431497160783"><ele>7.0</ele><time>2026-04-27T19:00:21Z</time></trkpt><trkpt lat="45.71523085106074" lon="-1.2308728453571458"><ele>7.0</ele><time>2026-04-27T19:00:22Z</time></trkpt><trkpt lat="45.715103737851344" lon="-1.2309052881023166"><ele>7.0</ele><time>2026-04-27T19:00:23Z</time></trkpt><trkpt lat="45.714988870721236" lon="-1.2309339667367782"><ele>7.0</ele><time>2026-04-27T19:00:24Z</time></trkpt><trkpt lat="45.714870912612284" lon="-1.230953844924142"><ele>7.0</ele><time>2026-04-27T19:00:25Z</time></trkpt><trkpt lat="45.71474146249537" lon="-1.2309772272588717"><ele>7.0</ele><time>2026-04-27T19:00:26Z</time></trkpt><trkpt lat="45.71460475937883" lon="-1.2310098919156807"><ele>7.0</ele><time>2026-04-27T19:00:27Z</time></trkpt><trkpt lat="45.71446427247999" lon="-1.2310471480638352"><ele>7.0</ele><time>2026-04-27T19:00:28Z</time></trkpt><trkpt lat="45.71431241979186" lon="-1.2310813104677578"><ele>7.0</ele><time>2026-04-27T19:00:29Z</time></trkpt><trkpt lat="45.714151934152376" lon="-1.2311142514906457"><ele>7.666666666666667</ele><time>2026-04-27T19:00:30Z</time></trkpt><trkpt lat="45.71398569086395" lon="-1.2311497049040683"><ele>8.333333333333334</ele><time>2026-04-27T19:00:31Z</time></trkpt><trkpt lat="45.71380262275026" lon="-1.2311864765146034"><ele>9.0</ele><time>2026-04-27T19:00:32Z</time></trkpt><trkpt lat="45.71364143797665" lon="-1.2312222554666645"><ele>9.0</ele><time>2026-04-27T19:00:33Z</time></trkpt><trkpt lat="45.71348849711925" lon="-1.2312543439818344"><ele>9.0</ele><time>2026-04-27T19:00:34Z</time></trkpt><trkpt lat="45.713318642712885" lon="-1.2312866395761066"><ele>9.0</ele><time>2026-04-27T19:00:35Z</time></trkpt><trkpt lat="45.71315106636638" lon="-1.2313201653385706"><ele>9.0</ele><time>2026-04-27T19:00:36Z</time></trkpt><trkpt lat="45.71300165299929" lon="-1.2313497521474868"><ele>9.0</ele><time>2026-04-27T19:00:37Z</time></trkpt><trkpt lat="45.71286564914808" lon="-1.2313782517754295"><ele>9.0</ele><time>2026-04-27T19:00:38Z</time></trkpt><trkpt lat="45.71273859703431" lon="-1.2314026778947489"><ele>9.0</ele><time>2026-04-27T19:00:39Z</time></trkpt><trkpt lat="45.71261852635184" lon="-1.2314247642036142"><ele>8.5</ele><time>2026-04-27T19:00:40Z</time></trkpt><trkpt lat="45.712488350986106" lon="-1.2314523429876647"><ele>8.0</ele><time>2026-04-27T19:00:41Z</time></trkpt><trkpt lat="45.712344431922425" lon="-1.2314845505401424"><ele>7.5</ele><time>2026-04-27T19:00:42Z</time></trkpt><trkpt lat="45.71219052468708" lon="-1.231508470412094"><ele>7.0</ele><time>2026-04-27T19:00:43Z</time></trkpt><trkpt lat="45.71203290655778" lon="-1.23154038727826"><ele>7.333333333333334</ele><time>2026-04-27T19:00:44Z</time></trkpt><trkpt lat="45.711868092332615" lon="-1.2315768949500134"><ele>7.666666666666666</ele><time>2026-04-27T19:00:45Z</time></trkpt><trkpt lat="45.711696657850105" lon="-1.2316140646201457"><ele>8.0</ele><time>2026-04-27T19:00:46Z</time></trkpt><trkpt lat="45.71151994292669" lon="-1.2316351710654432"><ele>8.0</ele><time>2026-04-27T19:00:47Z</time></trkpt><trkpt lat="45.71136846717738" lon="-1.2316760386418608"><ele>8.0</ele><time>2026-04-27T19:00:48Z</time></trkpt><trkpt lat="45.71122723121832" lon="-1.2317098935635922"><ele>8.0</ele><time>2026-04-27T19:00:49Z</time></trkpt><trkpt lat="45.711090136073395" lon="-1.2317647832601721"><ele>8.0</ele><time>2026-04-27T19:00:50Z</time></trkpt><trkpt lat="45.71095345287303" lon="-1.2318812417381941"><ele>8.0</ele><time>2026-04-27T19:00:51Z</time></trkpt><trkpt lat="45.710828720590904" lon="-1.2320655677815613"><ele>8.0</ele><time>2026-04-27T19:00:52Z</time></trkpt><trkpt lat="45.71071085111709" lon="-1.232272567473164"><ele>8.0</ele><time>2026-04-27T19:00:53Z</time></trkpt><trkpt lat="45.71060010983477" lon="-1.2324589558866388"><ele>7.75</ele><time>2026-04-27T19:00:54Z</time></trkpt><trkpt lat="45.710492067251664" lon="-1.2326009925637857"><ele>7.5</ele><time>2026-04-27T19:00:55Z</time></trkpt><trkpt lat="45.71037706670612" lon="-1.2326994451481432"><ele>7.25</ele><time>2026-04-27T19:00:56Z</time></trkpt><trkpt lat="45.71024326115532" lon="-1.23274328794011"><ele>7.0</ele><time>2026-04-27T19:00:57Z</time></trkpt><trkpt lat="45.71007783376304" lon="-1.2327310245956766"><ele>6.666666666666667</ele><time>2026-04-27T19:00:58Z</time></trkpt><trkpt lat="45.70990706267939" lon="-1.2327072552640408"><ele>6.333333333333334</ele><time>2026-04-27T19:00:59Z</time></trkpt><trkpt lat="45.70973398062696" lon="-1.232698562158306"><ele>6.0</ele><time>2026-04-27T19:01:00Z</time></trkpt><trkpt lat="45.70955843861158" lon="-1.2327022116267843"><ele>6.666666666666666</ele><time>2026-04-27T19:01:01Z</time></trkpt><trkpt lat="45.709387349649916" lon="-1.2327124550243962"><ele>7.333333333333333</ele><time>2026-04-27T19:01:02Z</time></trkpt><trkpt lat="45.709214480852545" lon="-1.2327099664193104"><ele>8.0</ele><time>2026-04-27T19:01:03Z</time></trkpt><trkpt lat="45.709044280969906" lon="-1.2327148019804441"><ele>8.0</ele><time>2026-04-27T19:01:04Z</time></trkpt><trkpt lat="45.708879762266484" lon="-1.2327346609535563"><ele>8.0</ele><time>2026-04-27T19:01:05Z</time></trkpt><trkpt lat="45.70872543543543" lon="-1.2327600985277423"><ele>8.0</ele><time>2026-04-27T19:01:06Z</time></trkpt><trkpt lat="45.7085860420497" lon="-1.2328055749051148"><ele>7.5</ele><time>2026-04-27T19:01:07Z</time></trkpt><trkpt lat="45.70845856067637" lon="-1.2328431063341336"><ele>7.0</ele><time>2026-04-27T19:01:07.999Z</time></trkpt><trkpt lat="45.70833813502041" lon="-1.2328737766113986"><ele>6.5</ele><time>2026-04-27T19:01:08.999Z</time></trkpt><trkpt lat="45.70822249743161" lon="-1.2328981337013178"><ele>6.0</ele><time>2026-04-27T19:01:09.999Z</time></trkpt><trkpt lat="45.70813523147023" lon="-1.2329244337659624"><ele>6.0</ele><time>2026-04-27T19:01:10.999Z</time></trkpt><trkpt lat="45.708063809070374" lon="-1.2329472699310668"><ele>6.0</ele><time>2026-04-27T19:01:11.999Z</time></trkpt><trkpt lat="45.70800154901806" lon="-1.2329682409405394"><ele>6.0</ele><time>2026-04-27T19:01:12.999Z</time></trkpt><trkpt lat="45.707899299889" lon="-1.2330217558572665"><ele>6.0</ele><time>2026-04-27T19:01:14.999Z</time></trkpt><trkpt lat="45.70786149349425" lon="-1.2331049787697508"><ele>6.0</ele><time>2026-04-27T19:01:16.999Z</time></trkpt><trkpt lat="45.707916382919116" lon="-1.2331909346063905"><ele>6.0</ele><time>2026-04-27T19:01:18.999Z</time></trkpt><trkpt lat="45.708028342111696" lon="-1.233189011391455"><ele>5.833333333333333</ele><time>2026-04-27T19:01:20.999Z</time></trkpt><trkpt lat="45.70812478258291" lon="-1.2331806571754522"><ele>5.666666666666667</ele><time>2026-04-27T19:01:22.999Z</time></trkpt><trkpt lat="45.708178988361134" lon="-1.2332879700099415"><ele>5.5</ele><time>2026-04-27T19:01:24.999Z</time></trkpt><trkpt lat="45.70818289268944" lon="-1.2334467215614373"><ele>5.333333333333334</ele><time>2026-04-27T19:01:26.999Z</time></trkpt><trkpt lat="45.70819412132846" lon="-1.233555349273123"><ele>5.166666666666667</ele><time>2026-04-27T19:01:28.999Z</time></trkpt><trkpt lat="45.70816705756691" lon="-1.2336495654237283"><ele>5.0</ele><time>2026-04-27T19:01:30.999Z</time></trkpt><trkpt lat="45.70807791163146" lon="-1.2336793933413228"><ele>5.0</ele><time>2026-04-27T19:01:32.999Z</time></trkpt><trkpt lat="45.707995390486076" lon="-1.233678428774271"><ele>5.0</ele><time>2026-04-27T19:01:34.999Z</time></trkpt><trkpt lat="45.70793408077258" lon="-1.2337329222393227"><ele>5.0</ele><time>2026-04-27T19:01:37.999Z</time></trkpt><trkpt lat="45.70787934979462" lon="-1.2337914974123227"><ele>5.0</ele><time>2026-04-27T19:01:41.999Z</time></trkpt><trkpt lat="45.707799204731394" lon="-1.2337924416664474"><ele>5.0</ele><time>2026-04-27T19:01:47.999Z</time></trkpt><trkpt lat="45.70779805045684" lon="-1.2336911630562664"><ele>5.0</ele><time>2026-04-27T19:02:04.999Z</time></trkpt><trkpt lat="45.70780780189398" lon="-1.23358350541095"><ele>5.0</ele><time>2026-04-27T19:02:07.999Z</time></trkpt><trkpt lat="45.707797108719184" lon="-1.2336895694220211"><ele>5.0</ele><time>2026-04-27T19:02:35Z</time></trkpt><trkpt lat="45.7077983766722" lon="-1.2337908145888192"><ele>5.0</ele><time>2026-04-27T19:02:42Z</time></trkpt><trkpt lat="45.70781444790609" lon="-1.2338816767928908"><ele>5.0</ele><time>2026-04-27T19:02:49Z</time></trkpt><trkpt lat="45.707833273580114" lon="-1.2339816983502676"><ele>5.0</ele><time>2026-04-27T19:02:55Z</time></trkpt><trkpt lat="45.70782707175233" lon="-1.2340737580192496"><ele>5.0</ele><time>2026-04-27T19:03:03Z</time></trkpt><trkpt lat="45.70783674562461" lon="-1.2341708454236857"><ele>5.0</ele><time>2026-04-27T19:03:12Z</time></trkpt><trkpt lat="45.70785162630646" lon="-1.2342707569321572"><ele>5.0</ele><time>2026-04-27T19:03:21Z</time></trkpt><trkpt lat="45.707871609134955" lon="-1.2343655395970765"><ele>5.0</ele><time>2026-04-27T19:03:28.999Z</time></trkpt><trkpt lat="45.707886160397166" lon="-1.2344574368000052"><ele>5.0</ele><time>2026-04-27T19:03:36.999Z</time></trkpt><trkpt lat="45.7079224494882" lon="-1.234543732872796"><ele>5.0</ele><time>2026-04-27T19:03:44.999Z</time></trkpt><trkpt lat="45.707937830825266" lon="-1.234636495840641"><ele>5.0</ele><time>2026-04-27T19:03:53.999Z</time></trkpt><trkpt lat="45.70794345167217" lon="-1.2347312732265088"><ele>5.0</ele><time>2026-04-27T19:04:01.999Z</time></trkpt><trkpt lat="45.70793878128794" lon="-1.2348257232232769"><ele>5.0</ele><time>2026-04-27T19:04:09.999Z</time></trkpt><trkpt lat="45.70794212735287" lon="-1.2349301244732986"><ele>5.0</ele><time>2026-04-27T19:04:18.999Z</time></trkpt><trkpt lat="45.70794152570128" lon="-1.2350352607114308"><ele>5.0</ele><time>2026-04-27T19:04:27.999Z</time></trkpt><trkpt lat="45.70794487801754" lon="-1.2351337737014325"><ele>5.0</ele><time>2026-04-27T19:04:37Z</time></trkpt><trkpt lat="45.70793498915396" lon="-1.2352358886195922"><ele>5.0</ele><time>2026-04-27T19:04:46Z</time></trkpt></trkseg></trk></gpx>